createdAt,value
2018-11-02T00:01:28.902Z,91.30
2018-11-02T00:03:59.722Z,91.90
2018-11-02T00:06:36.211Z,91.50
2018-11-02T00:09:09.008Z,91.50
2018-11-02T00:11:41.360Z,91.30
2018-11-02T00:14:11.452Z,91.30
2018-11-02T00:16:40.682Z,91.50
2018-11-02T00:19:10.065Z,90.50
2018-11-02T00:21:38.676Z,91.10
2018-11-02T00:24:08.086Z,91.30
2018-11-02T00:26:37.333Z,91.70
2018-11-02T00:29:08.808Z,91.60
2018-11-02T00:31:38.286Z,91.60
2018-11-02T00:36:56.890Z,92.20
2018-11-02T00:39:29.503Z,92.80
2018-11-02T00:42:01.993Z,92.90
2018-11-02T00:44:32.858Z,93.40
2018-11-02T00:47:04.729Z,93.00
2018-11-02T00:49:36.260Z,92.90
2018-11-02T00:52:07.134Z,92.60
2018-11-02T00:54:36.697Z,92.50
2018-11-02T00:57:13.997Z,92.60
2018-11-02T00:59:45.460Z,92.70
2018-11-02T01:02:15.799Z,91.90
2018-11-02T01:04:47.401Z,92.50
2018-11-02T01:07:18.064Z,92.30
2018-11-02T01:09:48.653Z,92.40
2018-11-02T01:12:18.174Z,92.50
2018-11-02T01:14:49.113Z,92.60
2018-11-02T01:17:19.800Z,92.80
2018-11-02T01:19:49.808Z,92.40
2018-11-02T01:22:18.485Z,92.10
2018-11-02T01:24:49.218Z,92.00
2018-11-02T01:27:19.709Z,91.80
2018-11-02T01:29:48.838Z,91.50
2018-11-02T01:32:17.451Z,91.60
2018-11-02T01:34:46.156Z,91.40
2018-11-02T01:37:17.476Z,91.30
2018-11-02T01:39:47.293Z,91.20
2018-11-02T01:42:18.287Z,91.50
2018-11-02T01:44:47.888Z,91.60
2018-11-02T01:47:16.864Z,91.40
2018-11-02T01:49:48.366Z,91.40
2018-11-02T01:52:18.176Z,90.60
2018-11-02T01:54:50.388Z,91.10
2018-11-02T01:57:20.074Z,91.00
2018-11-02T02:02:28.925Z,91.10
2018-11-02T02:04:58.766Z,91.40
2018-11-02T02:07:27.322Z,91.40
2018-11-02T02:09:57.676Z,91.30
2018-11-02T02:12:26.256Z,91.20
2018-11-02T02:14:58.208Z,91.30
2018-11-02T02:17:28.882Z,90.90
2018-11-02T02:20:01.981Z,90.80
2018-11-02T02:22:30.531Z,90.40
2018-11-02T02:25:00.566Z,90.70
2018-11-02T02:27:35.551Z,91.10
2018-11-02T02:30:06.271Z,90.20
2018-11-02T02:32:36.103Z,90.70
2018-11-02T02:35:05.761Z,90.60
2018-11-02T02:37:37.046Z,89.60
2018-11-02T02:40:09.119Z,90.70
2018-11-02T02:42:38.680Z,90.00
2018-11-02T02:45:09.435Z,90.20
2018-11-02T02:47:39.651Z,90.30
2018-11-02T02:50:11.969Z,90.00
2018-11-02T02:52:41.778Z,89.70
2018-11-02T02:55:11.822Z,90.20
2018-11-02T02:57:41.224Z,90.70
2018-11-02T03:00:13.175Z,90.50
2018-11-02T03:02:42.966Z,90.70
2018-11-02T03:05:12.621Z,90.20
2018-11-02T03:07:41.893Z,90.20
2018-11-02T03:10:12.168Z,90.00
2018-11-02T03:12:40.702Z,90.20
2018-11-02T03:15:09.975Z,89.70
2018-11-02T03:17:38.795Z,90.00
2018-11-02T03:20:10.616Z,88.80
2018-11-02T03:22:41.149Z,89.00
2018-11-02T03:25:11.496Z,88.60
2018-11-02T03:27:41.995Z,88.10
2018-11-02T03:30:12.065Z,88.10
2018-11-02T03:32:46.220Z,89.10
2018-11-02T03:35:14.996Z,89.00
2018-11-02T03:37:45.436Z,89.20
2018-11-02T03:40:14.850Z,89.00
2018-11-02T03:42:43.344Z,90.10
2018-11-02T03:45:13.412Z,89.20
2018-11-02T03:47:43.096Z,89.40
2018-11-02T03:50:12.662Z,89.90
2018-11-02T03:52:42.115Z,88.40
2018-11-02T03:55:12.872Z,88.50
2018-11-02T03:57:41.844Z,89.30
2018-11-02T04:00:10.980Z,89.20
2018-11-02T04:02:40.389Z,89.10
2018-11-02T04:05:11.886Z,88.30
2018-11-02T04:07:40.721Z,88.70
2018-11-02T04:10:11.418Z,90.00
2018-11-02T04:12:41.916Z,89.30
2018-11-02T04:15:11.998Z,89.30
2018-11-02T04:17:41.372Z,90.20
2018-11-02T04:20:12.464Z,90.40
2018-11-02T04:22:42.188Z,89.90
2018-11-02T04:25:16.515Z,90.10
2018-11-02T04:27:48.991Z,90.10
2018-11-02T04:30:24.796Z,90.30
2018-11-02T04:32:55.700Z,90.90
2018-11-02T04:35:27.747Z,90.80
2018-11-02T04:38:03.092Z,91.10
2018-11-02T04:40:36.103Z,90.50
2018-11-02T04:43:07.435Z,89.80
2018-11-02T04:45:42.412Z,90.10
2018-11-02T04:48:13.075Z,90.60
2018-11-02T04:50:43.055Z,90.20
2018-11-02T04:53:14.625Z,89.80
2018-11-02T04:55:46.741Z,89.80
2018-11-02T04:58:15.969Z,90.10
2018-11-02T05:00:47.436Z,88.50
2018-11-02T05:03:19.295Z,89.40
2018-11-02T05:05:48.406Z,89.60
2018-11-02T05:08:18.898Z,90.00
2018-11-02T05:10:50.573Z,90.00
2018-11-02T05:13:21.397Z,90.00
2018-11-02T05:15:51.117Z,89.50
2018-11-02T05:18:23.205Z,90.10
2018-11-02T05:20:55.381Z,89.70
2018-11-02T05:23:28.425Z,88.80
2018-11-02T05:25:59.552Z,89.00
2018-11-02T05:28:29.178Z,88.80
2018-11-02T05:30:58.750Z,87.80
2018-11-02T05:33:33.212Z,87.30
2018-11-02T05:36:05.507Z,87.10
2018-11-02T05:41:19.406Z,86.80
2018-11-02T05:43:49.093Z,86.70
2018-11-02T05:46:19.164Z,86.30
2018-11-02T05:48:48.017Z,86.50
2018-11-02T05:51:17.778Z,87.30
2018-11-02T05:53:46.692Z,87.10
2018-11-02T05:58:54.491Z,87.40
2018-11-02T06:01:33.794Z,86.80
2018-11-02T06:04:04.713Z,88.90
2018-11-02T06:06:34.306Z,88.40
2018-11-02T06:09:08.822Z,88.40
2018-11-02T06:11:43.384Z,87.90
2018-11-02T06:14:13.564Z,88.30
2018-11-02T06:16:44.744Z,89.50
2018-11-02T06:19:17.013Z,90.10
2018-11-02T06:21:47.512Z,90.30
2018-11-02T06:24:18.429Z,89.00
2018-11-02T06:26:48.633Z,89.80
2018-11-02T06:29:22.028Z,88.50
2018-11-02T06:31:52.096Z,88.00
2018-11-02T06:34:22.695Z,87.80
2018-11-02T06:36:53.149Z,89.30
2018-11-02T06:39:25.023Z,90.00
2018-11-02T06:41:53.869Z,88.80
2018-11-02T06:44:28.042Z,90.00
2018-11-02T06:46:57.620Z,90.20
2018-11-02T06:49:26.451Z,90.00
2018-11-02T06:51:56.079Z,89.10
2018-11-02T06:54:26.569Z,89.20
2018-11-02T06:56:57.343Z,88.10
2018-11-02T06:59:28.468Z,86.80
2018-11-02T07:01:59.646Z,87.10
2018-11-02T07:04:32.340Z,86.30
2018-11-02T07:07:02.270Z,88.10
2018-11-02T07:09:33.252Z,87.50
2018-11-02T07:12:01.854Z,87.10
2018-11-02T07:14:32.072Z,86.90
2018-11-02T07:17:03.994Z,87.90
2018-11-02T07:19:37.882Z,87.00
2018-11-02T07:22:09.765Z,86.20
2018-11-02T07:24:41.875Z,86.00
2018-11-02T07:27:16.156Z,86.30
2018-11-02T07:29:46.553Z,85.50
2018-11-02T07:32:18.803Z,86.10
2018-11-02T07:34:48.762Z,86.10
2018-11-02T07:37:22.406Z,85.50
2018-11-02T07:39:53.408Z,84.80
2018-11-02T07:42:23.773Z,86.00
2018-11-02T07:44:54.128Z,85.60
2018-11-02T07:47:25.054Z,85.90
2018-11-02T07:49:54.045Z,87.90
2018-11-02T07:52:24.077Z,87.80
2018-11-02T07:54:55.792Z,85.90
2018-11-02T07:57:25.557Z,86.70
2018-11-02T07:59:55.189Z,87.70
2018-11-02T08:02:25.889Z,88.60
2018-11-02T08:04:57.592Z,88.30
2018-11-02T08:07:27.507Z,88.20
2018-11-02T08:09:58.182Z,88.20
2018-11-02T08:12:27.037Z,88.90
2018-11-02T08:14:57.476Z,88.70
2018-11-02T08:17:29.260Z,88.00
2018-11-02T08:20:02.052Z,89.30
2018-11-02T08:22:33.879Z,88.90
2018-11-02T08:25:05.473Z,88.50
2018-11-02T08:27:34.596Z,88.00
2018-11-02T08:30:07.880Z,87.40
2018-11-02T08:32:38.409Z,87.70
2018-11-02T08:35:11.711Z,88.10
2018-11-02T08:37:43.152Z,87.10
2018-11-02T08:40:13.835Z,86.70
2018-11-02T08:42:43.507Z,86.00
2018-11-02T08:45:14.188Z,86.90
2018-11-02T08:47:45.747Z,87.40
2018-11-02T08:50:15.835Z,87.40
2018-11-02T08:52:45.301Z,87.50
2018-11-02T08:55:15.753Z,86.70
2018-11-02T08:57:46.280Z,86.50
2018-11-02T09:00:15.897Z,86.60
2018-11-02T09:02:46.857Z,85.70
2018-11-02T09:05:20.317Z,85.30
2018-11-02T09:07:57.335Z,84.80
2018-11-02T09:10:28.865Z,84.10
2018-11-02T09:13:01.004Z,84.10
2018-11-02T09:15:33.815Z,83.00
2018-11-02T09:18:04.902Z,82.20
2018-11-02T09:20:35.425Z,80.80
2018-11-02T09:23:11.974Z,80.90
2018-11-02T09:25:44.748Z,80.00
2018-11-02T09:28:15.960Z,79.10
2018-11-02T09:30:44.971Z,78.30
2018-11-02T09:33:14.415Z,76.80
2018-11-02T09:35:43.233Z,74.70
2018-11-02T09:38:13.235Z,76.60
2018-11-02T09:40:42.925Z,75.20
2018-11-02T09:43:12.456Z,76.10
2018-11-02T09:45:43.138Z,73.40
2018-11-02T09:48:13.360Z,76.90
2018-11-02T09:50:42.007Z,74.00
2018-11-02T09:53:12.775Z,73.40
2018-11-02T09:55:44.879Z,73.90
2018-11-02T09:58:15.547Z,74.00
2018-11-02T10:00:47.170Z,71.80
2018-11-02T10:03:17.298Z,70.50
2018-11-02T10:05:47.067Z,70.70
2018-11-02T10:08:16.252Z,68.50
2018-11-02T10:10:47.159Z,70.20
2018-11-02T10:13:18.569Z,68.60
2018-11-02T10:15:47.335Z,65.40
2018-11-02T10:18:15.996Z,68.60
2018-11-02T10:20:45.185Z,65.40
2018-11-02T10:23:15.887Z,65.30
2018-11-02T10:25:47.019Z,68.40
2018-11-02T10:28:15.906Z,65.20
2018-11-02T10:30:44.825Z,65.90
2018-11-02T10:33:16.753Z,65.00
2018-11-02T10:35:45.758Z,64.30
2018-11-02T10:38:14.392Z,64.50
2018-11-02T10:40:49.348Z,64.60
2018-11-02T10:43:24.179Z,62.60
2018-11-02T10:45:57.844Z,63.30
2018-11-02T10:48:29.576Z,64.60
2018-11-02T10:51:02.752Z,61.50
2018-11-02T10:53:33.676Z,61.30
2018-11-02T10:56:04.257Z,62.30
2018-11-02T10:58:33.817Z,63.30
2018-11-02T11:01:08.461Z,56.80
2018-11-02T11:03:38.974Z,58.70
2018-11-02T11:08:48.815Z,55.90
2018-11-02T11:11:19.501Z,56.20
2018-11-02T11:13:48.836Z,52.60
2018-11-02T11:16:17.991Z,56.50
2018-11-02T11:18:48.104Z,57.60
2018-11-02T11:21:19.005Z,51.60
2018-11-02T11:23:48.754Z,53.20
2018-11-02T11:26:20.147Z,52.40
2018-11-02T11:28:50.210Z,53.40
2018-11-02T11:31:19.774Z,51.70
2018-11-02T11:33:48.774Z,51.80
2018-11-02T11:36:21.877Z,51.00
2018-11-02T11:38:51.163Z,47.80
2018-11-02T11:41:27.579Z,47.60
2018-11-02T11:43:56.431Z,50.20
2018-11-02T11:46:27.513Z,50.90
2018-11-02T11:48:58.572Z,52.90
2018-11-02T11:51:28.132Z,52.50
2018-11-02T11:53:57.405Z,51.40
2018-11-02T11:56:26.212Z,53.80
2018-11-02T11:58:55.413Z,54.70
2018-11-02T12:01:24.882Z,54.30
2018-11-02T12:03:54.380Z,49.80
2018-11-02T12:06:24.615Z,47.10
2018-11-02T12:08:53.431Z,48.10
2018-11-02T12:11:21.945Z,48.90
2018-11-02T12:13:51.754Z,50.70
2018-11-02T12:16:21.067Z,51.10
2018-11-02T12:18:51.336Z,53.20
2018-11-02T12:21:21.258Z,50.70
2018-11-02T12:23:50.180Z,52.50
2018-11-02T12:26:23.687Z,52.70
2018-11-02T12:28:53.540Z,47.90
2018-11-02T12:31:23.719Z,45.40
2018-11-02T12:33:53.564Z,50.90
2018-11-02T12:36:24.492Z,49.10
2018-11-02T12:39:01.961Z,46.10
2018-11-02T12:41:31.941Z,47.80
2018-11-02T12:44:05.228Z,44.60
2018-11-02T12:46:36.030Z,47.20
2018-11-02T12:49:06.384Z,45.80
2018-11-02T12:51:35.088Z,42.90
2018-11-02T12:54:04.903Z,39.70
2018-11-02T12:56:34.916Z,43.00
2018-11-02T12:59:04.848Z,43.90
2018-11-02T13:01:40.776Z,44.80
2018-11-02T13:04:09.439Z,44.60
2018-11-02T13:06:41.592Z,42.80
2018-11-02T13:09:17.092Z,44.30
2018-11-02T13:11:45.698Z,45.80
2018-11-02T13:14:21.764Z,45.60
2018-11-02T13:16:50.459Z,46.00
2018-11-02T13:19:19.696Z,46.60
2018-11-02T13:21:48.463Z,46.90
2018-11-02T13:24:17.251Z,46.90
2018-11-02T13:26:47.485Z,47.00
2018-11-02T13:29:16.195Z,48.20
2018-11-02T13:31:45.430Z,49.20
2018-11-02T13:34:16.340Z,50.40
2018-11-02T13:36:46.421Z,51.20
2018-11-02T13:39:15.952Z,51.40
2018-11-02T13:41:46.593Z,52.70
2018-11-02T13:44:18.663Z,51.20
2018-11-02T13:46:50.341Z,53.10
2018-11-02T13:49:20.057Z,52.10
2018-11-02T13:51:51.276Z,51.30
2018-11-02T13:54:22.892Z,51.40
2018-11-02T13:56:53.641Z,50.70
2018-11-02T13:59:22.930Z,49.70
2018-11-02T14:01:53.082Z,48.30
2018-11-02T14:04:23.143Z,48.40
2018-11-02T14:06:52.703Z,48.00
2018-11-02T14:09:22.163Z,47.20
2018-11-02T14:11:51.869Z,49.10
2018-11-02T14:14:20.477Z,46.30
2018-11-02T14:16:52.022Z,48.80
2018-11-02T14:19:26.136Z,49.10
2018-11-02T14:21:56.369Z,50.20
2018-11-02T14:24:26.104Z,50.50
2018-11-02T14:26:54.810Z,51.50
2018-11-02T14:29:24.301Z,51.20
2018-11-02T14:31:54.242Z,52.20
2018-11-02T14:34:24.016Z,51.10
2018-11-02T14:36:53.965Z,49.30
2018-11-02T14:39:24.307Z,51.10
2018-11-02T14:41:54.295Z,50.20
2018-11-02T14:44:24.414Z,51.60
2018-11-02T14:46:55.025Z,50.50
2018-11-02T14:49:25.189Z,52.90
2018-11-02T14:51:55.514Z,53.20
2018-11-02T14:54:26.416Z,51.70
2018-11-02T14:56:56.901Z,54.50
2018-11-02T14:59:28.868Z,56.00
2018-11-02T15:01:57.590Z,55.30
2018-11-02T15:04:28.796Z,54.20
2018-11-02T15:06:58.467Z,55.50
2018-11-02T15:09:27.194Z,54.70
2018-11-02T15:11:57.361Z,52.30
2018-11-02T15:14:27.445Z,54.30
2018-11-02T15:16:58.811Z,53.50
2018-11-02T15:19:30.241Z,53.60
2018-11-02T15:22:02.491Z,53.80
2018-11-02T15:24:32.687Z,53.50
2018-11-02T15:27:05.240Z,54.90
2018-11-02T15:29:36.983Z,55.50
2018-11-02T15:32:06.913Z,56.00
2018-11-02T15:34:37.844Z,56.30
2018-11-02T15:37:08.717Z,55.80
2018-11-02T15:39:37.432Z,56.60
2018-11-02T15:42:07.425Z,56.80
2018-11-02T15:44:37.776Z,57.70
2018-11-02T15:47:07.688Z,57.70
2018-11-02T15:49:36.512Z,57.40
2018-11-02T15:52:07.496Z,58.20
2018-11-02T15:54:37.464Z,57.60
2018-11-02T15:57:06.520Z,60.00
2018-11-02T15:59:37.437Z,60.10
2018-11-02T16:02:06.835Z,60.20
2018-11-02T16:04:35.523Z,60.40
2018-11-02T16:07:07.254Z,61.40
2018-11-02T16:09:42.643Z,61.50
2018-11-02T16:12:15.074Z,61.50
2018-11-02T16:14:45.481Z,61.50
2018-11-02T16:17:15.709Z,61.60
2018-11-02T16:19:45.366Z,62.30
2018-11-02T16:22:14.257Z,61.80
2018-11-02T16:24:43.413Z,61.90
2018-11-02T16:27:12.977Z,63.30
2018-11-02T16:29:46.904Z,62.40
2018-11-02T16:32:16.756Z,62.20
2018-11-02T16:34:45.474Z,63.20
2018-11-02T16:37:15.145Z,63.20
2018-11-02T16:39:46.493Z,64.60
2018-11-02T16:42:15.299Z,64.30
2018-11-02T16:44:46.853Z,64.40
2018-11-02T16:47:16.660Z,65.00
2018-11-02T16:49:46.768Z,65.10
2018-11-02T16:52:18.081Z,66.10
2018-11-02T16:54:47.984Z,66.10
2018-11-02T16:57:19.863Z,66.50
2018-11-02T16:59:49.352Z,67.00
2018-11-02T17:02:18.817Z,67.80
2018-11-02T17:04:47.547Z,68.10
2018-11-02T17:07:17.860Z,68.70
2018-11-02T17:09:48.095Z,69.10
2018-11-02T17:12:18.319Z,70.30
2018-11-02T17:14:50.926Z,70.50
2018-11-02T17:17:20.449Z,70.60
2018-11-02T17:19:53.055Z,72.00
2018-11-02T17:22:24.715Z,72.20
2018-11-02T17:24:55.302Z,72.00
2018-11-02T17:27:24.145Z,72.80
2018-11-02T17:29:54.408Z,72.10
2018-11-02T17:32:27.530Z,72.00
2018-11-02T17:34:58.730Z,72.20
2018-11-02T17:37:29.955Z,72.10
2018-11-02T17:40:01.475Z,71.60
2018-11-02T17:42:32.916Z,71.70
2018-11-02T17:45:01.694Z,72.70
2018-11-02T17:47:31.538Z,73.10
2018-11-02T17:50:03.426Z,73.30
2018-11-02T17:52:32.046Z,74.60
2018-11-02T17:55:06.665Z,74.10
2018-11-02T17:57:37.403Z,74.10
2018-11-02T18:00:12.062Z,74.90
2018-11-02T18:02:46.345Z,74.50
2018-11-02T18:05:18.320Z,74.60
2018-11-02T18:07:47.882Z,74.50
2018-11-02T18:10:18.802Z,74.70
2018-11-02T18:12:49.209Z,74.70
2018-11-02T18:15:18.195Z,75.20
2018-11-02T18:17:47.891Z,75.10
2018-11-02T18:20:19.278Z,74.60
2018-11-02T18:22:48.367Z,75.40
2018-11-02T18:25:17.252Z,75.00
2018-11-02T18:27:45.934Z,74.80
2018-11-02T18:30:14.353Z,75.60
2018-11-02T18:32:43.048Z,74.40
2018-11-02T18:35:11.467Z,75.80
2018-11-02T18:37:40.878Z,76.20
2018-11-02T18:40:12.646Z,75.80
2018-11-02T18:42:41.368Z,75.80
2018-11-02T18:45:14.313Z,75.20
2018-11-02T18:47:42.898Z,75.70
2018-11-02T18:50:12.418Z,76.30
2018-11-02T18:52:40.875Z,76.80
2018-11-02T18:55:11.303Z,76.90
2018-11-02T18:57:39.940Z,76.10
2018-11-02T19:00:10.177Z,77.30
2018-11-02T19:02:38.708Z,76.80
2018-11-02T19:05:10.601Z,76.00
2018-11-02T19:07:38.946Z,76.30
2018-11-02T19:10:08.596Z,75.10
2018-11-02T19:12:39.143Z,76.70
2018-11-02T19:15:11.102Z,76.40
2018-11-02T19:17:39.748Z,77.10
2018-11-02T19:20:10.690Z,77.50
2018-11-02T19:22:39.092Z,77.00
2018-11-02T19:25:09.806Z,78.10
2018-11-02T19:27:38.257Z,78.40
2018-11-02T19:30:09.276Z,77.00
2018-11-02T19:32:38.108Z,77.60
2018-11-02T19:35:07.567Z,77.50
2018-11-02T19:37:35.967Z,78.40
2018-11-02T19:40:10.199Z,77.50
2018-11-02T19:42:38.744Z,77.90
2018-11-02T19:45:08.455Z,79.30
2018-11-02T19:47:42.643Z,79.00
2018-11-02T19:50:13.804Z,79.50
2018-11-02T19:52:43.182Z,79.70
2018-11-02T19:55:12.479Z,79.40
2018-11-02T19:57:42.209Z,79.10
2018-11-02T20:00:12.873Z,78.30
2018-11-02T20:02:42.005Z,79.10
2018-11-02T20:05:13.043Z,77.90
2018-11-02T20:07:42.325Z,78.00
2018-11-02T20:10:12.107Z,78.70
2018-11-02T20:12:43.639Z,78.20
2018-11-02T20:15:14.092Z,78.40
2018-11-02T20:17:45.311Z,79.20
2018-11-02T20:20:14.895Z,78.90
2018-11-02T20:22:45.074Z,78.80
2018-11-02T20:25:15.424Z,79.30
2018-11-02T20:27:44.053Z,78.40
2018-11-02T20:30:15.153Z,79.80
2018-11-02T20:32:43.679Z,79.20
2018-11-02T20:35:12.250Z,80.10
2018-11-02T20:37:43.520Z,78.90
2018-11-02T20:40:15.556Z,79.80
2018-11-02T20:42:44.749Z,79.10
2018-11-02T20:45:13.535Z,79.80
2018-11-02T20:47:52.978Z,79.00
2018-11-02T20:50:22.352Z,80.40
2018-11-02T20:52:51.843Z,80.90
2018-11-02T20:55:20.379Z,80.60
2018-11-02T20:57:48.807Z,80.60
2018-11-02T21:00:19.806Z,79.50
2018-11-02T21:02:53.821Z,78.70
2018-11-02T21:05:22.562Z,79.20
2018-11-02T21:07:51.848Z,78.50
2018-11-02T21:10:21.171Z,78.80
2018-11-02T21:12:49.705Z,79.80
2018-11-02T21:15:20.407Z,80.50
2018-11-02T21:17:49.409Z,79.80
2018-11-02T21:20:19.284Z,78.90
2018-11-02T21:22:47.820Z,80.20
2018-11-02T21:25:16.590Z,80.40
2018-11-02T21:27:45.812Z,81.40
2018-11-02T21:30:17.532Z,81.00
2018-11-02T21:32:47.000Z,81.30
2018-11-02T21:35:18.202Z,80.00
2018-11-02T21:37:48.001Z,80.00
2018-11-02T21:40:18.424Z,80.20
2018-11-02T21:42:46.990Z,79.70
2018-11-02T21:45:17.585Z,79.20
2018-11-02T21:47:46.243Z,80.60
2018-11-02T21:50:15.223Z,81.20
2018-11-02T21:52:48.306Z,80.00
2018-11-02T21:55:17.150Z,81.00
2018-11-02T21:57:46.816Z,80.00
2018-11-02T22:02:50.237Z,79.60
2018-11-02T22:05:19.066Z,79.70
2018-11-02T22:07:48.784Z,79.80
2018-11-02T22:10:19.306Z,80.20
2018-11-02T22:12:47.659Z,79.70
2018-11-02T22:15:16.551Z,79.90
2018-11-02T22:17:45.067Z,79.80
2018-11-02T22:20:14.508Z,80.40
2018-11-02T22:22:43.469Z,80.70
2018-11-02T22:25:12.847Z,80.00
2018-11-02T22:27:41.232Z,80.70
2018-11-02T22:30:17.053Z,79.60
2018-11-02T22:32:45.389Z,79.80
2018-11-02T22:35:14.679Z,79.70
2018-11-02T22:37:43.057Z,80.10
2018-11-02T22:40:12.363Z,80.60
2018-11-02T22:42:41.440Z,80.60
2018-11-02T22:45:11.313Z,80.70
2018-11-02T22:47:40.074Z,80.40
2018-11-02T22:50:08.867Z,80.70
2018-11-02T22:52:37.396Z,80.30
2018-11-02T22:55:07.092Z,81.10
2018-11-02T22:57:35.615Z,81.30
2018-11-02T23:00:08.124Z,81.50
2018-11-02T23:02:36.855Z,80.90
2018-11-02T23:05:05.877Z,81.60
2018-11-02T23:07:34.477Z,82.00
2018-11-02T23:10:03.567Z,81.20
2018-11-02T23:12:31.900Z,81.00
2018-11-02T23:15:00.900Z,81.20
2018-11-02T23:17:29.259Z,80.50
2018-11-02T23:19:57.618Z,81.00
2018-11-02T23:22:26.848Z,80.80
2018-11-02T23:24:56.235Z,80.90
2018-11-02T23:27:24.577Z,80.80
2018-11-02T23:29:53.145Z,82.00
2018-11-02T23:32:21.463Z,80.90
2018-11-02T23:34:49.786Z,81.30
2018-11-02T23:37:18.332Z,81.00
2018-11-02T23:39:46.674Z,80.80
2018-11-02T23:42:15.000Z,82.20
2018-11-02T23:44:43.445Z,82.00
2018-11-02T23:47:11.837Z,82.30
2018-11-02T23:49:40.311Z,81.80
2018-11-02T23:52:08.720Z,81.20
2018-11-02T23:54:37.108Z,81.40
2018-11-02T23:57:05.969Z,81.80
2018-11-02T23:59:34.392Z,81.60
